createdAt,value
2022-08-31T00:00:11.907Z,17.70
2022-08-31T00:02:58.117Z,17.70
2022-08-31T00:05:25.405Z,17.60
2022-08-31T00:07:52.666Z,17.60
2022-08-31T00:10:32.522Z,17.60
2022-08-31T00:13:06.842Z,17.40
2022-08-31T00:15:35.894Z,17.50
2022-08-31T00:18:03.621Z,17.50
2022-08-31T00:20:33.806Z,17.50
2022-08-31T00:23:07.663Z,17.40
2022-08-31T00:25:35.957Z,17.40
2022-08-31T00:28:04.245Z,17.40
2022-08-31T00:30:32.496Z,17.40
2022-08-31T00:33:00.151Z,17.30
2022-08-31T00:35:30.515Z,17.30
2022-08-31T00:37:57.737Z,17.30
2022-08-31T00:40:26.302Z,17.30
2022-08-31T00:42:55.129Z,17.20
2022-08-31T00:45:23.114Z,17.20
2022-08-31T00:47:52.291Z,17.20
2022-08-31T00:50:22.192Z,17.20
2022-08-31T00:52:56.840Z,17.10
2022-08-31T00:55:35.949Z,17.10
2022-08-31T00:58:07.909Z,17.10
2022-08-31T01:00:36.414Z,17.10
2022-08-31T01:03:06.581Z,16.90
2022-08-31T01:05:34.793Z,17.30
2022-08-31T01:08:04.532Z,17.00
2022-08-31T01:10:37.273Z,17.00
2022-08-31T01:13:05.210Z,16.90
2022-08-31T01:15:34.223Z,16.90
2022-08-31T01:18:03.765Z,16.90
2022-08-31T01:21:09.098Z,16.90
2022-08-31T01:23:43.357Z,16.90
2022-08-31T01:26:16.307Z,16.80
2022-08-31T01:28:43.585Z,16.80
2022-08-31T01:31:20.872Z,16.80
2022-08-31T01:33:48.173Z,16.70
2022-08-31T01:36:17.421Z,16.70
2022-08-31T01:38:45.909Z,16.70
2022-08-31T01:41:13.907Z,16.70
2022-08-31T01:43:41.793Z,16.70
2022-08-31T01:46:13.343Z,16.60
2022-08-31T01:48:44.927Z,16.60
2022-08-31T01:51:14.959Z,16.60
2022-08-31T01:53:45.708Z,16.60
2022-08-31T01:56:28.979Z,16.60
2022-08-31T01:58:59.523Z,16.70
2022-08-31T02:01:49.324Z,16.90
2022-08-31T02:04:19.818Z,16.80
2022-08-31T02:06:51.920Z,16.80
2022-08-31T02:09:21.491Z,16.90
2022-08-31T02:11:48.776Z,17.00
2022-08-31T02:14:17.236Z,17.00
2022-08-31T02:16:44.880Z,17.00
2022-08-31T02:19:12.330Z,17.10
2022-08-31T02:21:40.080Z,17.20
2022-08-31T02:24:11.102Z,17.20
2022-08-31T02:26:39.843Z,17.30
2022-08-31T02:29:07.638Z,17.30
2022-08-31T02:31:35.860Z,17.50
2022-08-31T02:34:03.190Z,17.50
2022-08-31T02:36:32.317Z,17.50
2022-08-31T02:39:03.741Z,17.60
2022-08-31T02:41:33.849Z,17.60
2022-08-31T02:44:00.761Z,17.70
2022-08-31T02:46:27.757Z,17.80
2022-08-31T02:49:15.008Z,17.80
2022-08-31T02:51:43.119Z,17.90
2022-08-31T02:54:12.148Z,17.90
2022-08-31T02:56:39.595Z,17.90
2022-08-31T02:59:07.665Z,17.90
2022-08-31T03:01:37.324Z,17.80
2022-08-31T03:04:05.198Z,18.00
2022-08-31T03:06:32.926Z,17.90
2022-08-31T03:09:02.207Z,18.10
2022-08-31T03:11:29.476Z,18.10
2022-08-31T03:13:58.699Z,18.10
2022-08-31T03:16:26.733Z,18.20
2022-08-31T03:18:53.961Z,18.20
2022-08-31T03:21:21.183Z,18.20
2022-08-31T03:23:48.174Z,18.20
2022-08-31T03:26:15.183Z,18.30
2022-08-31T03:28:42.325Z,18.30
2022-08-31T03:31:44.575Z,18.30
2022-08-31T03:34:11.814Z,18.30
2022-08-31T03:36:43.206Z,18.30
2022-08-31T03:39:10.229Z,18.30
2022-08-31T03:41:37.273Z,18.30
2022-08-31T03:44:05.916Z,18.30
2022-08-31T03:46:33.781Z,18.30
2022-08-31T03:49:02.423Z,18.20
2022-08-31T03:51:31.396Z,18.20
2022-08-31T03:53:58.303Z,18.20
2022-08-31T03:56:25.714Z,18.20
2022-08-31T03:58:52.781Z,18.10
2022-08-31T04:01:45.474Z,18.10
2022-08-31T04:04:31.285Z,18.10
2022-08-31T04:07:24.981Z,18.00
2022-08-31T04:10:22.956Z,18.00
2022-08-31T04:13:08.417Z,18.00
2022-08-31T04:15:54.348Z,17.90
2022-08-31T04:18:43.482Z,17.90
2022-08-31T04:21:25.457Z,17.90
2022-08-31T04:23:54.294Z,17.90
2022-08-31T04:26:28.990Z,17.90
2022-08-31T04:28:57.189Z,17.90
2022-08-31T04:31:26.844Z,17.90
2022-08-31T04:33:56.458Z,17.90
2022-08-31T04:36:27.081Z,17.90
2022-08-31T04:38:58.609Z,17.80
2022-08-31T04:41:28.370Z,17.80
2022-08-31T04:44:00.043Z,17.80
2022-08-31T04:46:28.737Z,17.70
2022-08-31T04:48:57.514Z,17.70
2022-08-31T04:51:31.429Z,17.70
2022-08-31T04:53:59.182Z,17.60
2022-08-31T04:56:30.331Z,17.60
2022-08-31T04:59:05.089Z,17.60
2022-08-31T05:01:42.501Z,17.60
2022-08-31T05:04:42.969Z,17.50
2022-08-31T05:07:09.924Z,17.60
2022-08-31T05:09:36.956Z,17.60
2022-08-31T05:12:04.494Z,17.50
2022-08-31T05:14:31.613Z,17.50
2022-08-31T05:17:08.062Z,17.50
2022-08-31T05:19:43.045Z,17.40
2022-08-31T05:22:11.762Z,17.40
2022-08-31T05:24:41.203Z,17.50
2022-08-31T05:27:09.947Z,17.40
2022-08-31T05:29:37.353Z,17.50
2022-08-31T05:32:39.874Z,17.50
2022-08-31T05:35:10.591Z,17.50
2022-08-31T05:37:39.884Z,17.50
2022-08-31T05:40:09.673Z,17.50
2022-08-31T05:42:36.844Z,17.50
2022-08-31T05:45:04.537Z,17.50
2022-08-31T05:47:31.558Z,17.50
2022-08-31T05:49:59.019Z,17.60
2022-08-31T05:52:26.940Z,17.60
2022-08-31T05:54:54.707Z,17.80
2022-08-31T05:57:26.362Z,17.70
2022-08-31T05:59:58.612Z,17.70
2022-08-31T06:02:26.780Z,17.80
2022-08-31T06:04:57.642Z,17.80
2022-08-31T06:07:24.764Z,17.90
2022-08-31T06:09:56.896Z,17.90
2022-08-31T06:12:26.431Z,18.00
2022-08-31T06:14:55.362Z,18.00
2022-08-31T06:17:24.105Z,18.10
2022-08-31T06:19:51.737Z,18.10
2022-08-31T06:22:20.091Z,18.20
2022-08-31T06:24:48.040Z,18.30
2022-08-31T06:27:16.300Z,18.30
2022-08-31T06:30:09.138Z,18.40
2022-08-31T06:32:36.165Z,18.50
2022-08-31T06:35:05.047Z,18.60
2022-08-31T06:37:51.958Z,18.70
2022-08-31T06:40:37.731Z,18.80
2022-08-31T06:43:23.295Z,19.00
2022-08-31T06:46:00.243Z,19.00
2022-08-31T06:48:35.468Z,19.10
2022-08-31T06:51:02.728Z,19.20
2022-08-31T06:53:30.281Z,19.30
2022-08-31T06:56:29.227Z,19.40
2022-08-31T06:59:24.274Z,19.50
2022-08-31T07:02:13.721Z,19.60
2022-08-31T07:04:40.840Z,19.80
2022-08-31T07:07:11.562Z,19.90
2022-08-31T07:09:41.394Z,20.10
2022-08-31T07:12:09.498Z,20.20
2022-08-31T07:14:37.428Z,20.40
2022-08-31T07:17:05.664Z,20.60
2022-08-31T07:19:33.930Z,20.80
2022-08-31T07:22:06.736Z,21.00
2022-08-31T07:24:35.374Z,21.30
2022-08-31T07:27:10.202Z,21.60
2022-08-31T07:29:49.275Z,21.90
2022-08-31T07:32:18.006Z,22.20
2022-08-31T07:34:45.843Z,22.50
2022-08-31T07:37:54.209Z,22.70
2022-08-31T07:40:45.372Z,23.20
2022-08-31T07:43:15.328Z,23.60
2022-08-31T07:45:43.275Z,23.90
2022-08-31T07:48:12.556Z,24.30
2022-08-31T07:50:54.395Z,24.60
2022-08-31T07:53:47.822Z,25.00
2022-08-31T07:56:35.015Z,25.30
2022-08-31T07:59:11.406Z,25.70
2022-08-31T08:01:41.392Z,26.10
2022-08-31T08:04:12.236Z,26.50
2022-08-31T08:07:00.322Z,26.70
2022-08-31T08:09:47.138Z,27.10
2022-08-31T08:12:36.891Z,27.50
2022-08-31T08:15:25.443Z,27.90
2022-08-31T08:18:05.819Z,28.20
2022-08-31T08:20:40.436Z,28.60
2022-08-31T08:23:13.866Z,29.00
2022-08-31T08:26:08.872Z,29.30
2022-08-31T08:29:00.020Z,29.60
2022-08-31T08:31:29.020Z,30.00
2022-08-31T08:33:56.411Z,30.30
2022-08-31T08:36:24.483Z,30.70
2022-08-31T08:38:54.126Z,31.00
2022-08-31T08:41:27.027Z,31.40
2022-08-31T08:43:58.833Z,31.80
2022-08-31T08:46:40.105Z,32.20
2022-08-31T08:49:40.216Z,32.60
2022-08-31T08:52:15.681Z,32.90
2022-08-31T08:54:47.258Z,33.30
2022-08-31T08:57:28.100Z,33.60
2022-08-31T09:00:03.876Z,33.90
2022-08-31T09:02:49.892Z,34.30
2022-08-31T09:06:45.207Z,34.70
2022-08-31T09:09:41.913Z,35.00
2022-08-31T09:12:22.913Z,35.50
2022-08-31T09:15:36.576Z,35.80
2022-08-31T09:18:41.814Z,36.00
2022-08-31T09:21:22.330Z,36.20
2022-08-31T09:24:05.774Z,36.40
2022-08-31T09:27:19.111Z,36.60
2022-08-31T09:30:00.976Z,36.70
2022-08-31T09:32:32.367Z,37.00
2022-08-31T09:35:27.458Z,37.10
2022-08-31T09:38:10.029Z,37.20
2022-08-31T09:40:49.885Z,37.20
2022-08-31T09:43:38.704Z,37.20
2022-08-31T09:46:11.857Z,37.40
2022-08-31T09:48:56.330Z,37.50
2022-08-31T09:51:36.967Z,37.70
2022-08-31T09:54:29.518Z,37.80
2022-08-31T09:57:00.124Z,38.00
2022-08-31T09:59:30.057Z,38.30
2022-08-31T10:02:02.408Z,38.50
2022-08-31T10:04:36.781Z,38.40
2022-08-31T10:07:50.148Z,38.40
2022-08-31T10:10:31.132Z,38.50
2022-08-31T10:13:19.337Z,38.50
2022-08-31T10:16:02.765Z,38.60
2022-08-31T10:18:56.652Z,38.80
2022-08-31T10:21:45.732Z,39.00
2022-08-31T10:24:40.035Z,39.40
2022-08-31T10:27:48.102Z,39.70
2022-08-31T10:30:29.406Z,40.10
2022-08-31T10:33:24.104Z,40.50
2022-08-31T10:36:00.221Z,41.10
2022-08-31T10:38:36.827Z,41.50
2022-08-31T10:41:07.447Z,41.80
2022-08-31T10:44:23.949Z,42.10
2022-08-31T10:46:58.883Z,42.40
2022-08-31T10:49:26.623Z,42.70
2022-08-31T10:52:24.308Z,43.30
2022-08-31T10:55:07.666Z,43.60
2022-08-31T10:58:08.364Z,43.80
2022-08-31T11:00:52.071Z,44.00
2022-08-31T11:03:37.750Z,44.30
2022-08-31T11:06:10.792Z,44.60
2022-08-31T11:09:04.869Z,44.80
2022-08-31T11:11:57.494Z,45.00
2022-08-31T11:14:58.500Z,45.20
2022-08-31T11:17:43.239Z,45.20
2022-08-31T11:20:31.308Z,45.10
2022-08-31T11:23:44.937Z,44.90
2022-08-31T11:26:36.057Z,44.30
2022-08-31T11:29:21.392Z,43.70
2022-08-31T11:31:49.813Z,42.90
2022-08-31T11:34:28.161Z,42.40
2022-08-31T11:37:02.286Z,41.70
2022-08-31T11:39:35.513Z,41.20
2022-08-31T11:42:37.845Z,40.90
2022-08-31T11:45:27.068Z,40.60
2022-08-31T11:47:55.009Z,40.50
2022-08-31T11:50:22.040Z,40.40
2022-08-31T11:52:53.572Z,40.30
2022-08-31T11:55:49.347Z,40.30
2022-08-31T11:58:27.054Z,40.30
2022-08-31T12:01:03.213Z,40.40
2022-08-31T12:03:52.996Z,40.40
2022-08-31T12:06:27.827Z,40.40
2022-08-31T12:09:18.356Z,40.40
2022-08-31T12:12:35.613Z,40.50
2022-08-31T12:15:42.893Z,40.80
2022-08-31T12:18:27.265Z,41.40
2022-08-31T12:21:38.757Z,42.00
2022-08-31T12:24:54.678Z,42.30
2022-08-31T12:27:44.080Z,42.60
2022-08-31T12:30:24.457Z,42.70
2022-08-31T12:33:12.023Z,42.90
2022-08-31T12:35:39.260Z,42.90
2022-08-31T12:38:10.480Z,42.80
2022-08-31T12:41:05.316Z,42.80
2022-08-31T12:43:46.257Z,43.00
2022-08-31T12:47:07.676Z,43.30
2022-08-31T12:50:11.076Z,43.70
2022-08-31T12:52:56.623Z,44.20
2022-08-31T12:55:46.189Z,44.60
2022-08-31T12:58:51.029Z,44.90
2022-08-31T13:01:24.174Z,44.80
2022-08-31T13:03:58.885Z,44.70
2022-08-31T13:06:36.587Z,44.20
2022-08-31T13:09:05.862Z,43.70
2022-08-31T13:11:43.980Z,43.30
2022-08-31T13:14:24.338Z,43.00
2022-08-31T13:17:01.088Z,42.90
2022-08-31T13:19:32.889Z,42.90
2022-08-31T13:22:12.321Z,43.00
2022-08-31T13:24:53.521Z,43.30
2022-08-31T13:27:28.175Z,43.60
2022-08-31T13:30:03.031Z,44.00
2022-08-31T13:32:34.118Z,44.30
2022-08-31T13:35:10.563Z,44.40
2022-08-31T13:37:43.635Z,44.60
2022-08-31T13:40:17.633Z,44.80
2022-08-31T13:42:56.742Z,44.90
2022-08-31T13:45:30.691Z,45.00
2022-08-31T13:48:22.388Z,45.20
2022-08-31T13:50:53.410Z,45.20
2022-08-31T13:53:45.120Z,45.20
2022-08-31T13:56:56.182Z,45.10
2022-08-31T13:59:26.594Z,45.10
2022-08-31T14:02:08.096Z,45.00
2022-08-31T14:04:57.298Z,44.70
2022-08-31T14:07:38.959Z,44.20
2022-08-31T14:10:28.109Z,43.50
2022-08-31T14:13:20.834Z,42.90
2022-08-31T14:15:52.447Z,42.10
2022-08-31T14:18:42.440Z,41.60
2022-08-31T14:21:21.211Z,41.20
2022-08-31T14:23:54.828Z,40.80
2022-08-31T14:26:26.573Z,40.50
2022-08-31T14:28:58.636Z,40.30
2022-08-31T14:31:31.380Z,40.10
2022-08-31T14:34:19.956Z,39.90
2022-08-31T14:36:54.671Z,39.70
2022-08-31T14:39:43.336Z,39.50
2022-08-31T14:42:26.405Z,39.40
2022-08-31T14:44:59.133Z,39.30
2022-08-31T14:47:31.573Z,39.20
2022-08-31T14:50:05.592Z,39.20
2022-08-31T14:52:49.561Z,39.10
2022-08-31T14:55:16.568Z,39.20
2022-08-31T14:57:47.125Z,39.10
2022-08-31T15:00:23.143Z,39.00
2022-08-31T15:02:53.910Z,38.70
2022-08-31T15:05:28.115Z,38.40
2022-08-31T15:07:56.146Z,38.00
2022-08-31T15:10:25.901Z,37.80
2022-08-31T15:12:53.862Z,37.70
2022-08-31T15:15:21.493Z,37.60
2022-08-31T15:17:51.635Z,37.50
2022-08-31T15:20:21.506Z,37.50
2022-08-31T15:22:48.712Z,37.50
2022-08-31T15:25:16.974Z,37.50
2022-08-31T15:27:51.615Z,37.40
2022-08-31T15:30:19.827Z,37.20
2022-08-31T15:32:48.253Z,36.90
2022-08-31T15:35:23.274Z,36.60
2022-08-31T15:37:58.815Z,36.40
2022-08-31T15:40:29.051Z,36.10
2022-08-31T15:42:56.472Z,36.10
2022-08-31T15:45:25.607Z,35.90
2022-08-31T15:48:11.315Z,35.80
2022-08-31T15:50:47.304Z,35.60
2022-08-31T15:53:16.773Z,35.50
2022-08-31T15:55:44.718Z,35.40
2022-08-31T15:58:12.584Z,35.40
2022-08-31T16:00:42.041Z,35.40
2022-08-31T16:03:10.012Z,35.40
2022-08-31T16:05:39.323Z,35.40
2022-08-31T16:08:12.350Z,35.50
2022-08-31T16:10:44.953Z,35.40
2022-08-31T16:13:13.108Z,35.20
2022-08-31T16:15:40.042Z,35.00
2022-08-31T16:18:08.099Z,34.80
2022-08-31T16:20:36.122Z,34.40
2022-08-31T16:23:03.244Z,34.10
2022-08-31T16:25:47.454Z,33.70
2022-08-31T16:28:19.274Z,33.40
2022-08-31T16:30:46.633Z,33.10
2022-08-31T16:33:14.190Z,32.80
2022-08-31T16:35:41.069Z,32.50
2022-08-31T16:38:08.030Z,32.20
2022-08-31T16:40:35.404Z,32.00
2022-08-31T16:43:03.024Z,31.70
2022-08-31T16:45:30.062Z,31.50
2022-08-31T16:48:17.171Z,31.20
2022-08-31T16:50:47.500Z,30.90
2022-08-31T16:53:18.141Z,30.60
2022-08-31T16:55:47.729Z,30.30
2022-08-31T16:58:25.138Z,30.00
2022-08-31T17:01:12.551Z,29.70
2022-08-31T17:03:50.106Z,29.30
2022-08-31T17:06:17.710Z,29.00
2022-08-31T17:08:45.599Z,28.70
2022-08-31T17:11:47.522Z,28.50
2022-08-31T17:14:35.989Z,28.20
2022-08-31T17:17:06.448Z,27.80
2022-08-31T17:19:38.893Z,27.70
2022-08-31T17:22:16.953Z,27.40
2022-08-31T17:24:47.084Z,27.10
2022-08-31T17:27:19.297Z,27.00
2022-08-31T17:29:51.877Z,26.70
2022-08-31T17:32:23.390Z,26.50
2022-08-31T17:34:51.996Z,26.30
2022-08-31T17:37:30.266Z,26.10
2022-08-31T17:39:59.045Z,25.90
2022-08-31T17:42:28.165Z,25.70
2022-08-31T17:44:58.886Z,25.60
2022-08-31T17:47:26.346Z,25.40
2022-08-31T17:49:54.075Z,25.20
2022-08-31T17:52:21.937Z,24.80
2022-08-31T17:54:50.719Z,24.80
2022-08-31T17:57:25.258Z,24.70
2022-08-31T17:59:54.762Z,24.50
2022-08-31T18:02:32.661Z,24.30
2022-08-31T18:05:01.759Z,24.20
2022-08-31T18:07:29.354Z,24.00
2022-08-31T18:09:56.410Z,23.90
2022-08-31T18:12:25.405Z,23.90
2022-08-31T18:14:53.973Z,23.60
2022-08-31T18:17:24.102Z,23.50
2022-08-31T18:19:51.047Z,23.40
2022-08-31T18:22:19.631Z,23.20
2022-08-31T18:24:46.789Z,23.10
2022-08-31T18:27:15.319Z,22.90
2022-08-31T18:29:44.010Z,22.80
2022-08-31T18:32:11.713Z,22.60
2022-08-31T18:34:44.594Z,22.60
2022-08-31T18:37:12.841Z,22.50
2022-08-31T18:40:02.326Z,22.40
2022-08-31T18:42:49.880Z,22.30
2022-08-31T18:45:18.313Z,22.20
2022-08-31T18:50:47.796Z,22.00
2022-08-31T18:53:29.404Z,22.10
2022-08-31T18:56:10.041Z,21.80
2022-08-31T18:58:38.656Z,21.70
2022-08-31T19:01:10.078Z,21.60
2022-08-31T19:03:37.784Z,21.60
2022-08-31T19:06:06.104Z,21.50
2022-08-31T19:08:35.010Z,21.50
2022-08-31T19:11:07.067Z,21.40
2022-08-31T19:13:34.367Z,21.30
2022-08-31T19:16:08.071Z,21.20
2022-08-31T19:18:41.704Z,21.20
2022-08-31T19:21:22.267Z,21.20
2022-08-31T19:23:49.813Z,21.10
2022-08-31T19:26:34.584Z,21.00
2022-08-31T19:29:06.841Z,21.00
2022-08-31T19:31:37.189Z,21.00
2022-08-31T19:34:07.632Z,20.90
2022-08-31T19:36:37.116Z,20.90
2022-08-31T19:39:06.461Z,20.80
2022-08-31T19:41:34.998Z,20.80
2022-08-31T19:44:08.524Z,20.70
2022-08-31T19:46:52.288Z,20.70
2022-08-31T19:49:19.642Z,20.60
2022-08-31T19:51:57.435Z,20.60
2022-08-31T19:54:27.613Z,20.50
2022-08-31T19:56:54.753Z,20.50
2022-08-31T19:59:23.631Z,20.40
2022-08-31T20:01:55.705Z,20.40
2022-08-31T20:04:27.101Z,20.40
2022-08-31T20:06:56.148Z,20.30
2022-08-31T20:09:24.559Z,20.30
2022-08-31T20:11:54.488Z,20.20
2022-08-31T20:14:23.439Z,20.20
2022-08-31T20:16:51.290Z,20.20
2022-08-31T20:19:24.494Z,20.10
2022-08-31T20:22:07.702Z,19.90
2022-08-31T20:24:43.669Z,20.00
2022-08-31T20:27:16.493Z,20.00
2022-08-31T20:29:46.489Z,19.90
2022-08-31T20:32:13.392Z,19.90
2022-08-31T20:34:40.306Z,19.90
2022-08-31T20:37:07.627Z,19.80
2022-08-31T20:39:35.605Z,19.80
2022-08-31T20:42:03.210Z,19.70
2022-08-31T20:44:34.989Z,19.70
2022-08-31T20:47:26.841Z,19.70
2022-08-31T20:50:03.789Z,19.60
2022-08-31T20:52:34.888Z,19.60
2022-08-31T20:55:04.053Z,19.50
2022-08-31T20:57:33.510Z,19.70
2022-08-31T21:00:04.966Z,19.50
2022-08-31T21:02:33.649Z,19.50
2022-08-31T21:05:20.786Z,19.40
2022-08-31T21:07:49.000Z,19.40
2022-08-31T21:10:16.219Z,19.40
2022-08-31T21:12:49.757Z,19.40
2022-08-31T21:15:22.211Z,19.30
2022-08-31T21:17:56.981Z,19.40
2022-08-31T21:20:25.369Z,19.40
2022-08-31T21:22:53.385Z,19.40
2022-08-31T21:25:21.251Z,19.40
2022-08-31T21:27:48.244Z,19.40
2022-08-31T21:30:15.388Z,19.40
2022-08-31T21:32:42.401Z,19.50
2022-08-31T21:35:12.079Z,19.50
2022-08-31T21:37:40.204Z,19.50
2022-08-31T21:40:08.135Z,19.60
2022-08-31T21:42:35.053Z,19.60
2022-08-31T21:45:01.864Z,19.60
2022-08-31T21:47:29.177Z,19.70
2022-08-31T21:49:56.031Z,19.80
2022-08-31T21:52:23.280Z,19.70
2022-08-31T21:54:51.481Z,19.80
2022-08-31T21:57:19.204Z,19.70
2022-08-31T21:59:46.033Z,19.80
2022-08-31T22:02:13.912Z,19.80
2022-08-31T22:04:43.939Z,19.80
2022-08-31T22:07:14.225Z,19.80
2022-08-31T22:09:42.855Z,19.80
2022-08-31T22:12:10.441Z,19.90
2022-08-31T22:14:39.849Z,19.80
2022-08-31T22:17:08.233Z,19.90
2022-08-31T22:19:39.056Z,19.90
2022-08-31T22:22:12.154Z,19.80
2022-08-31T22:24:40.697Z,19.80
2022-08-31T22:27:10.602Z,19.80
2022-08-31T22:29:39.911Z,19.80
2022-08-31T22:32:15.212Z,19.80
2022-08-31T22:34:43.395Z,19.80
2022-08-31T22:37:11.637Z,19.80
2022-08-31T22:39:40.395Z,19.80
2022-08-31T22:42:08.931Z,19.80
2022-08-31T22:44:37.499Z,19.80
2022-08-31T22:47:05.035Z,19.80
2022-08-31T22:49:32.779Z,19.80
2022-08-31T22:51:59.629Z,19.80
2022-08-31T22:54:26.967Z,19.80
2022-08-31T22:56:54.496Z,19.80
2022-08-31T22:59:27.361Z,19.80
2022-08-31T23:02:03.287Z,19.80
2022-08-31T23:04:34.319Z,19.80
2022-08-31T23:07:03.480Z,19.80
2022-08-31T23:09:33.627Z,19.80
2022-08-31T23:12:04.419Z,19.70
2022-08-31T23:14:32.615Z,19.80
2022-08-31T23:17:04.028Z,19.80
2022-08-31T23:19:37.101Z,19.70
2022-08-31T23:22:09.396Z,19.70
2022-08-31T23:24:47.389Z,19.70
2022-08-31T23:27:18.614Z,19.70
2022-08-31T23:29:50.173Z,19.70
2022-08-31T23:32:20.312Z,19.70
2022-08-31T23:34:52.506Z,19.70
2022-08-31T23:37:25.696Z,19.70
2022-08-31T23:39:54.560Z,19.70
2022-08-31T23:42:25.128Z,19.70
2022-08-31T23:44:52.584Z,19.70
2022-08-31T23:47:23.559Z,19.60
2022-08-31T23:49:52.318Z,19.60
2022-08-31T23:52:23.994Z,19.70
2022-08-31T23:54:54.949Z,19.60
2022-08-31T23:57:32.720Z,19.60
